sensor_id;sensor_type;location;lat;lon;timestamp;pressure;altitude;pressure_sealevel;temperature;humidity
60061;BME280;45933;51.336;12.612;2022-09-09T00:00:20;99428.25;;;17.02;61.27
60061;BME280;45933;51.336;12.612;2022-09-09T00:03:12;99432.19;;;17.12;60.97
60061;BME280;45933;51.336;12.612;2022-09-09T00:06:13;99436.81;;;17.07;60.94
60061;BME280;45933;51.336;12.612;2022-09-09T00:11:46;99437.81;;;17.04;61.03
60061;BME280;45933;51.336;12.612;2022-09-09T00:17:09;99441.00;;;16.90;61.29
60061;BME280;45933;51.336;12.612;2022-09-09T00:19:44;99441.94;;;16.89;61.58
60061;BME280;45933;51.336;12.612;2022-09-09T00:22:20;99428.97;;;16.85;61.48
60061;BME280;45933;51.336;12.612;2022-09-09T00:24:51;99432.59;;;16.82;61.71
60061;BME280;45933;51.336;12.612;2022-09-09T00:27:41;99441.94;;;16.89;61.60
60061;BME280;45933;51.336;12.612;2022-09-09T00:30:21;99437.19;;;16.77;61.84
60061;BME280;45933;51.336;12.612;2022-09-09T00:33:11;99438.75;;;16.81;61.18
60061;BME280;45933;51.336;12.612;2022-09-09T00:35:40;99441.56;;;16.77;61.34
60061;BME280;45933;51.336;12.612;2022-09-09T00:41:15;99432.88;;;16.75;61.51
60061;BME280;45933;51.336;12.612;2022-09-09T00:43:49;99433.81;;;16.73;61.30
60061;BME280;45933;51.336;12.612;2022-09-09T00:46:54;99429.13;;;16.80;61.21
60061;BME280;45933;51.336;12.612;2022-09-09T00:52:12;99425.22;;;16.68;61.40
60061;BME280;45933;51.336;12.612;2022-09-09T00:54:57;99425.13;;;16.71;61.14
60061;BME280;45933;51.336;12.612;2022-09-09T00:57:35;99427.69;;;16.73;60.94
60061;BME280;45933;51.336;12.612;2022-09-09T01:00:34;99423.22;;;16.75;60.93
60061;BME280;45933;51.336;12.612;2022-09-09T01:06:00;99420.03;;;16.67;61.03
60061;BME280;45933;51.336;12.612;2022-09-09T01:17:26;99434.16;;;16.64;61.32
60061;BME280;45933;51.336;12.612;2022-09-09T01:20:08;99430.56;;;16.67;61.21
60061;BME280;45933;51.336;12.612;2022-09-09T01:22:48;99426.31;;;16.63;61.20
60061;BME280;45933;51.336;12.612;2022-09-09T01:28:16;99429.91;;;16.60;61.35
60061;BME280;45933;51.336;12.612;2022-09-09T01:30:44;99424.19;;;16.51;61.55
60061;BME280;45933;51.336;12.612;2022-09-09T01:33:14;99430.31;;;16.51;61.54
60061;BME280;45933;51.336;12.612;2022-09-09T01:35:48;99425.72;;;16.56;61.43
60061;BME280;45933;51.336;12.612;2022-09-09T01:38:17;99422.28;;;16.54;61.37
60061;BME280;45933;51.336;12.612;2022-09-09T01:40:43;99432.88;;;16.53;61.35
60061;BME280;45933;51.336;12.612;2022-09-09T01:43:09;99432.88;;;16.53;61.26
60061;BME280;45933;51.336;12.612;2022-09-09T01:45:35;99426.63;;;16.55;61.29
60061;BME280;45933;51.336;12.612;2022-09-09T01:48:02;99433.91;;;16.48;61.55
60061;BME280;45933;51.336;12.612;2022-09-09T01:50:28;99421.59;;;16.49;61.65
60061;BME280;45933;51.336;12.612;2022-09-09T01:52:57;99425.16;;;16.48;61.74
60061;BME280;45933;51.336;12.612;2022-09-09T01:55:39;99418.88;;;16.52;61.81
60061;BME280;45933;51.336;12.612;2022-09-09T02:01:06;99422.28;;;16.54;61.73
60061;BME280;45933;51.336;12.612;2022-09-09T02:03:35;99421.06;;;16.41;61.96
60061;BME280;45933;51.336;12.612;2022-09-09T02:08:44;99428.97;;;16.41;61.99
60061;BME280;45933;51.336;12.612;2022-09-09T02:11:19;99426.50;;;16.36;62.08
60061;BME280;45933;51.336;12.612;2022-09-09T02:13:47;99430.09;;;16.34;62.13
60061;BME280;45933;51.336;12.612;2022-09-09T02:16:20;99432.72;;;16.34;62.27
60061;BME280;45933;51.336;12.612;2022-09-09T02:18:57;99430.97;;;16.34;62.10
60061;BME280;45933;51.336;12.612;2022-09-09T02:21:27;99425.69;;;16.34;62.11
60061;BME280;45933;51.336;12.612;2022-09-09T02:23:56;99432.69;;;16.35;61.86
60061;BME280;45933;51.336;12.612;2022-09-09T02:26:25;99435.25;;;16.37;61.91
60061;BME280;45933;51.336;12.612;2022-09-09T02:28:53;99432.03;;;16.30;62.06
60061;BME280;45933;51.336;12.612;2022-09-09T02:31:22;99426.75;;;16.30;61.82
60061;BME280;45933;51.336;12.612;2022-09-09T02:33:57;99433.72;;;16.31;61.83
60061;BME280;45933;51.336;12.612;2022-09-09T02:36:25;99433.97;;;16.25;62.06
60061;BME280;45933;51.336;12.612;2022-09-09T02:38:54;99435.06;;;16.19;62.15
60061;BME280;45933;51.336;12.612;2022-09-09T02:41:25;99433.06;;;16.26;61.99
60061;BME280;45933;51.336;12.612;2022-09-09T02:43:52;99433.16;;;16.23;62.04
60061;BME280;45933;51.336;12.612;2022-09-09T02:49:00;99431.09;;;16.31;61.80
60061;BME280;45933;51.336;12.612;2022-09-09T02:54:28;99435.25;;;16.37;61.60
60061;BME280;45933;51.336;12.612;2022-09-09T02:57:19;99430.75;;;16.40;61.50
60061;BME280;45933;51.336;12.612;2022-09-09T02:59:46;99425.09;;;16.28;61.77
60061;BME280;45933;51.336;12.612;2022-09-09T03:02:12;99435.75;;;16.25;61.83
60061;BME280;45933;51.336;12.612;2022-09-09T03:04:38;99435.78;;;16.23;61.74
60061;BME280;45933;51.336;12.612;2022-09-09T03:07:04;99435.75;;;16.25;61.73
60061;BME280;45933;51.336;12.612;2022-09-09T03:09:31;99433.28;;;16.20;61.81
60061;BME280;45933;51.336;12.612;2022-09-09T03:11:58;99436.59;;;16.25;61.53
60061;BME280;45933;51.336;12.612;2022-09-09T03:14:23;99437.47;;;16.26;61.50
60061;BME280;45933;51.336;12.612;2022-09-09T03:16:53;99435.97;;;16.18;61.83
60061;BME280;45933;51.336;12.612;2022-09-09T03:19:19;99431.38;;;16.24;61.56
60061;BME280;45933;51.336;12.612;2022-09-09T03:21:45;99439.47;;;16.19;61.86
60061;BME280;45933;51.336;12.612;2022-09-09T03:24:11;99437.88;;;16.15;61.93
60061;BME280;45933;51.336;12.612;2022-09-09T03:26:36;99445.69;;;16.16;61.85
60061;BME280;45933;51.336;12.612;2022-09-09T03:29:03;99437.81;;;16.16;61.75
60061;BME280;45933;51.336;12.612;2022-09-09T03:31:32;99433.53;;;16.14;61.76
60061;BME280;45933;51.336;12.612;2022-09-09T03:33:58;99430.00;;;16.15;61.91
60061;BME280;45933;51.336;12.612;2022-09-09T03:36:27;99433.47;;;16.15;61.78
60061;BME280;45933;51.336;12.612;2022-09-09T03:38:53;99429.13;;;16.14;61.86
60061;BME280;45933;51.336;12.612;2022-09-09T03:41:22;99427.41;;;16.13;61.77
60061;BME280;45933;51.336;12.612;2022-09-09T03:43:50;99433.56;;;16.12;61.79
60061;BME280;45933;51.336;12.612;2022-09-09T03:46:16;99436.28;;;16.11;61.98
60061;BME280;45933;51.336;12.612;2022-09-09T03:48:41;99436.28;;;16.11;61.89
60061;BME280;45933;51.336;12.612;2022-09-09T03:51:07;99418.72;;;16.11;61.73
60061;BME280;45933;51.336;12.612;2022-09-09T03:53:32;99424.13;;;16.08;61.95
60061;BME280;45933;51.336;12.612;2022-09-09T03:55:58;99421.53;;;16.07;62.05
60061;BME280;45933;51.336;12.612;2022-09-09T03:58:25;99429.41;;;16.07;62.06
60061;BME280;45933;51.336;12.612;2022-09-09T04:01:02;99423.97;;;16.11;61.89
60061;BME280;45933;51.336;12.612;2022-09-09T04:03:29;99425.06;;;16.06;61.97
60061;BME280;45933;51.336;12.612;2022-09-09T04:05:56;99427.78;;;16.04;61.98
60061;BME280;45933;51.336;12.612;2022-09-09T04:08:22;99427.81;;;16.03;61.93
60061;BME280;45933;51.336;12.612;2022-09-09T04:10:50;99426.09;;;16.02;62.04
60061;BME280;45933;51.336;12.612;2022-09-09T04:13:18;99428.00;;;15.98;62.14
60061;BME280;45933;51.336;12.612;2022-09-09T04:15:53;99434.34;;;15.92;62.32
60061;BME280;45933;51.336;12.612;2022-09-09T04:18:20;99434.47;;;15.89;62.25
60061;BME280;45933;51.336;12.612;2022-09-09T04:20:47;99436.16;;;15.90;62.34
60061;BME280;45933;51.336;12.612;2022-09-09T04:23:13;99433.59;;;15.89;62.16
60061;BME280;45933;51.336;12.612;2022-09-09T04:25:43;99432.84;;;15.85;62.51
60061;BME280;45933;51.336;12.612;2022-09-09T04:28:09;99426.66;;;15.88;62.20
60061;BME280;45933;51.336;12.612;2022-09-09T04:30:35;99426.81;;;15.83;62.25
60061;BME280;45933;51.336;12.612;2022-09-09T04:33:00;99425.69;;;15.65;62.82
60061;BME280;45933;51.336;12.612;2022-09-09T04:35:26;99440.63;;;15.65;62.96
60061;BME280;45933;51.336;12.612;2022-09-09T04:37:52;99446.72;;;15.65;62.95
60061;BME280;45933;51.336;12.612;2022-09-09T04:40:17;99443.50;;;15.57;63.19
60061;BME280;45933;51.336;12.612;2022-09-09T04:42:43;99436.97;;;15.69;62.57
60061;BME280;45933;51.336;12.612;2022-09-09T04:45:09;99443.56;;;15.56;63.15
60061;BME280;45933;51.336;12.612;2022-09-09T04:47:36;99436.41;;;15.59;62.96
60061;BME280;45933;51.336;12.612;2022-09-09T04:50:02;99441.47;;;15.65;62.84
60061;BME280;45933;51.336;12.612;2022-09-09T04:52:27;99437.13;;;15.64;63.01
60061;BME280;45933;51.336;12.612;2022-09-09T04:54:53;99428.97;;;15.72;62.65
60061;BME280;45933;51.336;12.612;2022-09-09T04:57:19;99429.00;;;15.71;62.88
60061;BME280;45933;51.336;12.612;2022-09-09T04:59:44;99436.88;;;15.72;62.76
60061;BME280;45933;51.336;12.612;2022-09-09T05:02:11;99437.72;;;15.73;62.77
60061;BME280;45933;51.336;12.612;2022-09-09T05:04:36;99442.00;;;15.75;62.86
60061;BME280;45933;51.336;12.612;2022-09-09T05:07:01;99438.34;;;15.79;62.62
60061;BME280;45933;51.336;12.612;2022-09-09T05:09:27;99439.97;;;15.82;62.82
60061;BME280;45933;51.336;12.612;2022-09-09T05:11:52;99445.22;;;15.83;62.64
60061;BME280;45933;51.336;12.612;2022-09-09T05:14:18;99447.84;;;15.83;62.95
60061;BME280;45933;51.336;12.612;2022-09-09T05:16:46;99450.22;;;15.89;62.65
60061;BME280;45933;51.336;12.612;2022-09-09T05:19:12;99457.31;;;15.87;62.75
60061;BME280;45933;51.336;12.612;2022-09-09T05:21:38;99450.97;;;15.93;62.68
60061;BME280;45933;51.336;12.612;2022-09-09T05:24:03;99455.25;;;15.95;62.59
60061;BME280;45933;51.336;12.612;2022-09-09T05:26:29;99455.88;;;16.02;62.53
60061;BME280;45933;51.336;12.612;2022-09-09T05:28:55;99459.56;;;15.98;62.68
60061;BME280;45933;51.336;12.612;2022-09-09T05:31:21;99455.09;;;16.00;62.88
60061;BME280;45933;51.336;12.612;2022-09-09T05:33:47;99454.00;;;16.06;62.87
60061;BME280;45933;51.336;12.612;2022-09-09T05:36:18;99455.44;;;16.14;62.40
60061;BME280;45933;51.336;12.612;2022-09-09T05:38:44;99457.00;;;16.18;62.39
60061;BME280;45933;51.336;12.612;2022-09-09T05:41:11;99461.47;;;16.16;62.27
60061;BME280;45933;51.336;12.612;2022-09-09T05:43:38;99457.81;;;16.20;62.29
60061;BME280;45933;51.336;12.612;2022-09-09T05:46:12;99462.66;;;16.31;62.02
60061;BME280;45933;51.336;12.612;2022-09-09T05:48:42;99462.59;;;16.33;62.05
60061;BME280;45933;51.336;12.612;2022-09-09T05:51:12;99458.94;;;16.37;61.77
60061;BME280;45933;51.336;12.612;2022-09-09T05:53:38;99460.63;;;16.38;61.82
60061;BME280;45933;51.336;12.612;2022-09-09T05:56:09;99456.84;;;16.45;61.75
60061;BME280;45933;51.336;12.612;2022-09-09T05:58:39;99466.41;;;16.47;61.86
60061;BME280;45933;51.336;12.612;2022-09-09T06:01:14;99459.84;;;16.58;61.40
60061;BME280;45933;51.336;12.612;2022-09-09T06:03:41;99462.34;;;16.61;61.56
60061;BME280;45933;51.336;12.612;2022-09-09T06:06:09;99463.91;;;16.66;61.43
60061;BME280;45933;51.336;12.612;2022-09-09T06:08:40;99468.09;;;16.70;61.12
60061;BME280;45933;51.336;12.612;2022-09-09T06:11:11;99471.19;;;16.82;61.26
60061;BME280;45933;51.336;12.612;2022-09-09T06:13:37;99465.88;;;16.83;61.33
60061;BME280;45933;51.336;12.612;2022-09-09T06:16:05;99466.59;;;16.87;61.07
60061;BME280;45933;51.336;12.612;2022-09-09T06:18:31;99472.47;;;16.93;61.24
60061;BME280;45933;51.336;12.612;2022-09-09T06:20:59;99474.03;;;16.97;61.35
60061;BME280;45933;51.336;12.612;2022-09-09T06:23:26;99468.66;;;17.01;61.15
60061;BME280;45933;51.336;12.612;2022-09-09T06:25:59;99476.31;;;17.07;61.24
60061;BME280;45933;51.336;12.612;2022-09-09T06:28:25;99475.19;;;17.12;60.97
60061;BME280;45933;51.336;12.612;2022-09-09T06:30:57;99462.41;;;17.23;61.24
60061;BME280;45933;51.336;12.612;2022-09-09T06:33:23;99470.19;;;17.27;60.85
60061;BME280;45933;51.336;12.612;2022-09-09T06:35:52;99472.50;;;17.34;60.76
60061;BME280;45933;51.336;12.612;2022-09-09T06:38:18;99475.00;;;17.37;60.70
60061;BME280;45933;51.336;12.612;2022-09-09T06:40:53;99478.97;;;17.47;60.67
60061;BME280;45933;51.336;12.612;2022-09-09T06:43:23;99484.97;;;17.51;60.70
60061;BME280;45933;51.336;12.612;2022-09-09T06:46:00;99488.91;;;17.61;60.78
60061;BME280;45933;51.336;12.612;2022-09-09T06:48:26;99483.41;;;17.66;60.65
60061;BME280;45933;51.336;12.612;2022-09-09T06:53:28;99479.56;;;17.74;60.26
60061;BME280;45933;51.336;12.612;2022-09-09T06:55:53;99470.53;;;17.80;59.91
60061;BME280;45933;51.336;12.612;2022-09-09T06:58:19;99473.88;;;17.84;60.17
60061;BME280;45933;51.336;12.612;2022-09-09T07:00:47;99472.66;;;17.91;59.97
60061;BME280;45933;51.336;12.612;2022-09-09T07:03:13;99474.25;;;17.95;59.39
60061;BME280;45933;51.336;12.612;2022-09-09T07:05:38;99475.75;;;18.00;59.35
60061;BME280;45933;51.336;12.612;2022-09-09T07:08:04;99474.69;;;18.05;59.34
60061;BME280;45933;51.336;12.612;2022-09-09T07:10:29;99475.34;;;18.10;59.38
60061;BME280;45933;51.336;12.612;2022-09-09T07:12:54;99482.97;;;18.16;59.54
60061;BME280;45933;51.336;12.612;2022-09-09T07:15:20;99476.69;;;18.18;59.46
60061;BME280;45933;51.336;12.612;2022-09-09T07:17:46;99483.69;;;18.19;59.03
60061;BME280;45933;51.336;12.612;2022-09-09T07:20:13;99481.63;;;18.26;58.83
60061;BME280;45933;51.336;12.612;2022-09-09T07:22:40;99480.38;;;18.33;58.84
60061;BME280;45933;51.336;12.612;2022-09-09T07:25:06;99481.25;;;18.34;58.79
60061;BME280;45933;51.336;12.612;2022-09-09T07:27:31;99484.59;;;18.37;58.68
60061;BME280;45933;51.336;12.612;2022-09-09T07:29:57;99476.47;;;18.42;58.59
60061;BME280;45933;51.336;12.612;2022-09-09T07:32:22;99472.78;;;18.46;58.31
60061;BME280;45933;51.336;12.612;2022-09-09T07:34:48;99477.88;;;18.49;58.54
60061;BME280;45933;51.336;12.612;2022-09-09T07:37:15;99478.81;;;18.48;58.69
60061;BME280;45933;51.336;12.612;2022-09-09T07:39:41;99483.78;;;18.54;58.76
60061;BME280;45933;51.336;12.612;2022-09-09T07:42:07;99474.81;;;18.58;58.50
60061;BME280;45933;51.336;12.612;2022-09-09T07:44:32;99467.59;;;18.62;58.89
60061;BME280;45933;51.336;12.612;2022-09-09T07:47:01;99479.59;;;18.69;58.80
60061;BME280;45933;51.336;12.612;2022-09-09T07:49:26;99479.31;;;18.75;58.85
60061;BME280;45933;51.336;12.612;2022-09-09T07:51:52;99482.56;;;18.80;58.39
60061;BME280;45933;51.336;12.612;2022-09-09T07:54:18;99486.63;;;18.87;58.05
60061;BME280;45933;51.336;12.612;2022-09-09T07:56:46;99486.09;;;18.98;58.02
60061;BME280;45933;51.336;12.612;2022-09-09T07:59:12;99489.44;;;19.01;57.46
60061;BME280;45933;51.336;12.612;2022-09-09T08:01:43;99500.53;;;19.08;57.24
60061;BME280;45933;51.336;12.612;2022-09-09T08:04:14;99498.31;;;19.18;57.45
60061;BME280;45933;51.336;12.612;2022-09-09T08:06:45;99502.50;;;19.22;56.90
60061;BME280;45933;51.336;12.612;2022-09-09T08:09:11;99500.94;;;19.35;56.54
60061;BME280;45933;51.336;12.612;2022-09-09T08:11:38;99500.56;;;19.43;56.66
60061;BME280;45933;51.336;12.612;2022-09-09T08:14:04;99502.97;;;19.47;55.93
60061;BME280;45933;51.336;12.612;2022-09-09T08:16:33;99507.00;;;19.54;55.22
60061;BME280;45933;51.336;12.612;2022-09-09T08:19:02;99507.19;;;19.69;55.50
60061;BME280;45933;51.336;12.612;2022-09-09T08:21:30;99508.72;;;19.90;56.59
60061;BME280;45933;51.336;12.612;2022-09-09T08:23:59;99503.03;;;20.14;55.66
60061;BME280;45933;51.336;12.612;2022-09-09T08:26:30;99506.56;;;20.46;55.38
60061;BME280;45933;51.336;12.612;2022-09-09T08:28:57;99504.00;;;20.92;54.50
60061;BME280;45933;51.336;12.612;2022-09-09T08:31:28;99504.88;;;21.38;53.50
60061;BME280;45933;51.336;12.612;2022-09-09T08:33:55;99506.34;;;21.72;50.84
60061;BME280;45933;51.336;12.612;2022-09-09T08:36:23;99504.13;;;21.95;49.03
60061;BME280;45933;51.336;12.612;2022-09-09T08:38:51;99493.78;;;22.18;49.07
60061;BME280;45933;51.336;12.612;2022-09-09T08:45:21;99501.84;;;22.73;49.49
60061;BME280;45933;51.336;12.612;2022-09-09T08:55:45;99503.94;;;24.38;46.32
60061;BME280;45933;51.336;12.612;2022-09-09T09:06:34;99508.34;;;24.87;42.23
60061;BME280;45933;51.336;12.612;2022-09-09T09:09:29;99517.34;;;25.10;42.57
60061;BME280;45933;51.336;12.612;2022-09-09T09:11:58;99500.44;;;25.22;42.57
60061;BME280;45933;51.336;12.612;2022-09-09T09:14:28;99509.31;;;25.34;43.06
60061;BME280;45933;51.336;12.612;2022-09-09T09:17:10;99506.97;;;25.53;42.67
60061;BME280;45933;51.336;12.612;2022-09-09T09:19:39;99511.41;;;25.76;41.99
60061;BME280;45933;51.336;12.612;2022-09-09T09:22:19;99493.09;;;26.17;42.39
60061;BME280;45933;51.336;12.612;2022-09-09T09:24:52;99488.88;;;26.48;41.37
60061;BME280;45933;51.336;12.612;2022-09-09T09:27:34;99492.44;;;26.80;41.14
60061;BME280;45933;51.336;12.612;2022-09-09T09:30:15;99491.84;;;27.09;38.61
60061;BME280;45933;51.336;12.612;2022-09-09T09:32:55;99494.31;;;27.33;39.13
60061;BME280;45933;51.336;12.612;2022-09-09T09:35:21;99488.97;;;27.54;39.16
60061;BME280;45933;51.336;12.612;2022-09-09T09:37:47;99486.94;;;27.88;39.26
60061;BME280;45933;51.336;12.612;2022-09-09T09:40:18;99490.16;;;28.12;38.30
60061;BME280;45933;51.336;12.612;2022-09-09T09:42:56;99493.66;;;28.34;36.13
60061;BME280;45933;51.336;12.612;2022-09-09T09:45:41;99483.94;;;28.52;36.74
60061;BME280;45933;51.336;12.612;2022-09-09T09:48:11;99488.19;;;28.55;35.66
60061;BME280;45933;51.336;12.612;2022-09-09T09:50:49;99489.09;;;28.75;36.82
60061;BME280;45933;51.336;12.612;2022-09-09T09:53:20;99497.34;;;28.52;35.96
60061;BME280;45933;51.336;12.612;2022-09-09T09:56:15;99486.66;;;28.62;36.62
60061;BME280;45933;51.336;12.612;2022-09-09T10:01:31;99478.81;;;27.99;36.52
60061;BME280;45933;51.336;12.612;2022-09-09T10:04:22;99493.47;;;27.95;36.99
60061;BME280;45933;51.336;12.612;2022-09-09T10:06:49;99482.75;;;27.95;37.85
60061;BME280;45933;51.336;12.612;2022-09-09T10:09:22;99483.34;;;28.08;37.50
60061;BME280;45933;51.336;12.612;2022-09-09T10:13:15;99479.84;;;28.38;38.25
60061;BME280;45933;51.336;12.612;2022-09-09T10:18:08;99482.75;;;28.85;37.03
60061;BME280;45933;51.336;12.612;2022-09-09T10:26:03;99476.13;;;29.48;34.36
60061;BME280;45933;51.336;12.612;2022-09-09T10:31:45;99470.28;;;29.81;34.13
60061;BME280;45933;51.336;12.612;2022-09-09T10:37:01;99456.19;;;29.60;33.94
60061;BME280;45933;51.336;12.612;2022-09-09T10:39:38;99462.09;;;29.63;33.15
60061;BME280;45933;51.336;12.612;2022-09-09T10:42:14;99473.00;;;29.62;32.75
60061;BME280;45933;51.336;12.612;2022-09-09T10:47:33;99475.00;;;29.21;33.56
60061;BME280;45933;51.336;12.612;2022-09-09T10:55:24;99459.03;;;29.39;34.55
60061;BME280;45933;51.336;12.612;2022-09-09T10:57:53;99464.41;;;29.39;33.39
60061;BME280;45933;51.336;12.612;2022-09-09T11:00:27;99463.25;;;29.51;32.81
60061;BME280;45933;51.336;12.612;2022-09-09T11:02:58;99462.41;;;29.51;31.92
60061;BME280;45933;51.336;12.612;2022-09-09T11:05:35;99464.78;;;29.73;32.36
60061;BME280;45933;51.336;12.612;2022-09-09T11:16:38;99438.34;;;30.15;32.42
60061;BME280;45933;51.336;12.612;2022-09-09T11:25:23;99442.91;;;30.78;31.82
60061;BME280;45933;51.336;12.612;2022-09-09T11:41:05;99427.91;;;30.03;31.39
60061;BME280;45933;51.336;12.612;2022-09-09T11:43:44;99422.81;;;30.00;32.19
60061;BME280;45933;51.336;12.612;2022-09-09T11:46:12;99423.25;;;29.95;31.96
60061;BME280;45933;51.336;12.612;2022-09-09T11:48:59;99420.53;;;30.05;31.49
60061;BME280;45933;51.336;12.612;2022-09-09T11:51:26;99424.06;;;30.05;31.65
60061;BME280;45933;51.336;12.612;2022-09-09T11:53:57;99418.25;;;30.10;30.95
60061;BME280;45933;51.336;12.612;2022-09-09T11:56:32;99412.56;;;30.23;31.15
60061;BME280;45933;51.336;12.612;2022-09-09T11:59:29;99415.69;;;30.18;30.45
60061;BME280;45933;51.336;12.612;2022-09-09T12:01:58;99421.09;;;30.08;30.63
60061;BME280;45933;51.336;12.612;2022-09-09T12:04:29;99406.19;;;30.24;30.29
60061;BME280;45933;51.336;12.612;2022-09-09T12:07:23;99414.94;;;30.26;30.26
60061;BME280;45933;51.336;12.612;2022-09-09T12:12:25;99417.56;;;30.35;30.86
60061;BME280;45933;51.336;12.612;2022-09-09T12:17:24;99413.94;;;30.27;30.69
60061;BME280;45933;51.336;12.612;2022-09-09T12:20:19;99409.59;;;30.16;30.39
60061;BME280;45933;51.336;12.612;2022-09-09T12:23:00;99409.38;;;30.00;31.15
60061;BME280;45933;51.336;12.612;2022-09-09T12:25:53;99408.06;;;29.86;31.00
60061;BME280;45933;51.336;12.612;2022-09-09T12:28:26;99409.84;;;29.48;31.15
60061;BME280;45933;51.336;12.612;2022-09-09T12:31:06;99413.16;;;29.23;31.74
60061;BME280;45933;51.336;12.612;2022-09-09T12:33:39;99405.53;;;29.08;32.51
60061;BME280;45933;51.336;12.612;2022-09-09T12:36:12;99396.63;;;28.88;33.21
60061;BME280;45933;51.336;12.612;2022-09-09T12:38:40;99410.59;;;28.82;33.22
60061;BME280;45933;51.336;12.612;2022-09-09T12:41:18;99391.97;;;28.81;32.27
60061;BME280;45933;51.336;12.612;2022-09-09T12:43:44;99399.03;;;28.82;32.19
60061;BME280;45933;51.336;12.612;2022-09-09T12:46:18;99394.94;;;28.87;32.72
60061;BME280;45933;51.336;12.612;2022-09-09T12:48:46;99395.34;;;28.92;32.40
60061;BME280;45933;51.336;12.612;2022-09-09T12:51:23;99395.81;;;29.07;32.90
60061;BME280;45933;51.336;12.612;2022-09-09T12:53:51;99386.91;;;29.07;33.64
60061;BME280;45933;51.336;12.612;2022-09-09T12:56:21;99384.34;;;29.15;32.49
60061;BME280;45933;51.336;12.612;2022-09-09T12:58:50;99385.91;;;29.08;32.35
60061;BME280;45933;51.336;12.612;2022-09-09T13:01:25;99381.22;;;29.20;32.71
60061;BME280;45933;51.336;12.612;2022-09-09T13:03:52;99381.63;;;29.34;33.51
60061;BME280;45933;51.336;12.612;2022-09-09T13:06:23;99374.38;;;29.64;34.23
60061;BME280;45933;51.336;12.612;2022-09-09T13:08:54;99377.22;;;29.90;32.12
60061;BME280;45933;51.336;12.612;2022-09-09T13:11:44;99377.91;;;30.19;31.63
60061;BME280;45933;51.336;12.612;2022-09-09T13:14:18;99375.88;;;30.49;30.22
60061;BME280;45933;51.336;12.612;2022-09-09T13:16:55;99366.44;;;30.81;30.70
60061;BME280;45933;51.336;12.612;2022-09-09T13:19:21;99377.97;;;30.91;29.86
60061;BME280;45933;51.336;12.612;2022-09-09T13:21:47;99366.03;;;31.11;29.70
60061;BME280;45933;51.336;12.612;2022-09-09T13:24:31;99358.66;;;31.21;29.35
60061;BME280;45933;51.336;12.612;2022-09-09T13:27:00;99358.53;;;31.23;28.31
60061;BME280;45933;51.336;12.612;2022-09-09T13:29:30;99356.41;;;31.09;27.87
60061;BME280;45933;51.336;12.612;2022-09-09T13:32:16;99350.91;;;31.18;28.38
60061;BME280;45933;51.336;12.612;2022-09-09T13:34:54;99345.16;;;31.13;28.38
60061;BME280;45933;51.336;12.612;2022-09-09T13:37:32;99345.25;;;31.04;28.53
60061;BME280;45933;51.336;12.612;2022-09-09T13:39:59;99347.91;;;30.78;27.71
60061;BME280;45933;51.336;12.612;2022-09-09T13:42:32;99340.69;;;30.60;27.59
60061;BME280;45933;51.336;12.612;2022-09-09T13:45:00;99347.88;;;30.42;27.78
60061;BME280;45933;51.336;12.612;2022-09-09T13:47:34;99344.59;;;30.12;28.54
60061;BME280;45933;51.336;12.612;2022-09-09T13:52:49;99348.22;;;29.56;29.30
60061;BME280;45933;51.336;12.612;2022-09-09T13:55:17;99343.19;;;29.34;30.16
60061;BME280;45933;51.336;12.612;2022-09-09T13:57:59;99354.13;;;29.13;30.04
60061;BME280;45933;51.336;12.612;2022-09-09T14:00:32;99359.38;;;28.85;29.66
60061;BME280;45933;51.336;12.612;2022-09-09T14:02:58;99354.56;;;28.60;30.64
60061;BME280;45933;51.336;12.612;2022-09-09T14:05:27;99369.22;;;28.36;31.27
60061;BME280;45933;51.336;12.612;2022-09-09T14:07:53;99362.69;;;28.20;31.46
60061;BME280;45933;51.336;12.612;2022-09-09T14:10:19;99358.69;;;28.04;31.87
60061;BME280;45933;51.336;12.612;2022-09-09T14:12:45;99357.38;;;27.89;32.33
60061;BME280;45933;51.336;12.612;2022-09-09T14:15:12;99368.34;;;27.76;32.55
60061;BME280;45933;51.336;12.612;2022-09-09T14:17:37;99374.75;;;27.64;32.99
60061;BME280;45933;51.336;12.612;2022-09-09T14:20:04;99379.41;;;27.41;32.69
60061;BME280;45933;51.336;12.612;2022-09-09T14:22:33;99385.38;;;27.24;32.42
60061;BME280;45933;51.336;12.612;2022-09-09T14:24:59;99396.97;;;26.92;32.99
60061;BME280;45933;51.336;12.612;2022-09-09T14:27:24;99397.59;;;26.64;33.10
60061;BME280;45933;51.336;12.612;2022-09-09T14:29:51;99394.94;;;26.41;33.91
60061;BME280;45933;51.336;12.612;2022-09-09T14:32:17;99386.59;;;26.23;33.39
60061;BME280;45933;51.336;12.612;2022-09-09T14:34:42;99392.22;;;25.98;34.14
60061;BME280;45933;51.336;12.612;2022-09-09T14:37:08;99391.53;;;25.85;33.93
60061;BME280;45933;51.336;12.612;2022-09-09T14:39:33;99396.44;;;25.67;35.09
60061;BME280;45933;51.336;12.612;2022-09-09T14:41:59;99390.13;;;25.56;35.01
60061;BME280;45933;51.336;12.612;2022-09-09T14:44:24;99385.16;;;25.41;35.67
60061;BME280;45933;51.336;12.612;2022-09-09T14:46:49;99378.25;;;25.38;36.39
60061;BME280;45933;51.336;12.612;2022-09-09T14:49:18;99381.06;;;25.37;37.09
60061;BME280;45933;51.336;12.612;2022-09-09T14:51:43;99378.13;;;25.40;36.00
60061;BME280;45933;51.336;12.612;2022-09-09T14:54:08;99376.31;;;25.40;35.74
60061;BME280;45933;51.336;12.612;2022-09-09T14:56:34;99379.38;;;25.47;35.98
60061;BME280;45933;51.336;12.612;2022-09-09T14:59:00;99374.75;;;25.49;35.95
60061;BME280;45933;51.336;12.612;2022-09-09T15:01:29;99380.22;;;25.47;35.69
60061;BME280;45933;51.336;12.612;2022-09-09T15:03:57;99381.28;;;25.56;35.33
60061;BME280;45933;51.336;12.612;2022-09-09T15:06:24;99378.41;;;25.59;35.73
60061;BME280;45933;51.336;12.612;2022-09-09T15:08:51;99386.03;;;25.64;35.11